Time;durP1;ratioP1;P1;durP2;ratioP2;P2;SDS_P1;SDS_P2;PMS_P1;PMS_P2;Temp;Humidity;BMP_temperature;BMP_pressure;BME280_temperature;BME280_humidity;BME280_pressure;Samples;Min_cycle;Max_cycle;Signal;HPM_P1;HPM_P2
2021/04/29 00:02:41;;;;;;;10.83;9.17;;;8.90;95.90;;;9.98;100.00;99038.22;4922578;28;100796;-61
2021/04/29 00:09:32;;;;;;;9.80;8.80;;;8.80;96.20;;;10.11;100.00;99042.06;4926730;28;100091;-60
2021/04/29 00:20:18;;;;;;;12.77;10.53;;;8.80;96.50;;;10.20;100.00;99035.63;4917449;28;100830;-60
2021/04/29 00:23:30;;;;;;;11.93;10.63;;;8.80;96.50;;;10.23;100.00;99036.09;4926488;28;100448;-59
2021/04/29 00:37:56;;;;;;;13.70;9.50;;;8.80;96.90;;;9.99;100.00;99025.69;4920761;28;100214;-60
2021/04/29 00:41:25;;;;;;;11.30;9.23;;;8.80;97.00;;;10.07;100.00;99029.06;4925758;28;100458;-60
2021/04/29 00:48:53;;;;;;;11.67;9.00;;;8.90;97.00;;;10.14;100.00;99026.47;4922457;28;100129;-58
2021/04/29 00:56:04;;;;;;;10.30;9.17;;;9.00;97.20;;;10.23;100.00;99020.06;4926142;28;100162;-60
2021/04/29 00:59:27;;;;;;;13.00;8.80;;;9.00;97.30;;;10.20;100.00;99020.44;4925491;28;101885;-60
2021/04/29 01:02:58;;;;;;;10.63;9.63;;;9.00;97.60;;;10.19;100.00;99020.63;4924651;28;100847;-59
2021/04/29 01:06:36;;;;;;;9.97;8.87;;;9.10;97.80;;;10.18;100.00;99017.09;4926336;28;100132;-59
2021/04/29 01:13:39;;;;;;;9.83;8.87;;;9.10;98.10;;;10.34;100.00;99018.75;4835350;28;101975;-59
2021/04/29 01:16:52;;;;;;;10.47;8.10;;;9.10;98.10;;;10.36;100.00;99014.06;4888258;28;100580;-60
2021/04/29 01:27:40;;;;;;;9.37;8.37;;;9.10;98.80;;;10.50;100.00;99001.66;4863960;28;100804;-59
2021/04/29 01:30:54;;;;;;;11.23;8.97;;;9.10;98.70;;;10.49;100.00;99002.69;4855590;28;100616;-57
2021/04/29 01:34:12;;;;;;;9.87;8.73;;;9.20;99.00;;;10.50;100.00;98990.97;4883337;28;100552;-60
2021/04/29 01:41:27;;;;;;;10.50;8.67;;;9.20;99.30;;;10.53;100.00;98991.41;4847521;28;101346;-59
2021/04/29 01:51:49;;;;;;;10.77;8.93;;;9.30;99.50;;;10.59;100.00;98969.25;4906085;28;100468;-59
2021/04/29 01:55:25;;;;;;;9.80;8.70;;;9.30;99.70;;;10.65;100.00;98965.81;4905219;28;100728;-60
2021/04/29 01:58:36;;;;;;;9.67;8.17;;;9.40;99.90;;;10.64;100.00;98966.81;4902169;28;101219;-59
2021/04/29 02:02:12;;;;;;;10.77;8.00;;;9.40;99.90;;;10.80;100.00;98958.56;4906333;28;100277;-61
2021/04/29 02:05:35;;;;;;;9.80;8.53;;;9.40;99.90;;;10.95;100.00;98950.44;4905500;28;100151;-60
2021/04/29 02:08:59;;;;;;;8.60;7.40;;;9.50;99.90;;;10.94;100.00;98958.66;4921259;28;101352;-60
2021/04/29 02:12:43;;;;;;;10.20;8.37;;;9.50;99.90;;;11.03;100.00;98954.84;4925565;28;100705;-60
2021/04/29 02:15:58;;;;;;;10.17;8.83;;;9.60;99.90;;;11.03;100.00;98950.31;4925266;28;100354;-59
2021/04/29 02:19:25;;;;;;;9.00;8.10;;;9.60;99.90;;;11.13;100.00;98950.78;4925130;28;100218;-59
2021/04/29 02:22:39;;;;;;;8.77;7.87;;;9.70;99.90;;;11.27;100.00;98942.88;4925555;28;100974;-60
2021/04/29 02:26:17;;;;;;;10.03;7.57;;;9.70;99.90;;;11.36;100.00;98933.69;4925792;28;100252;-59
2021/04/29 02:29:53;;;;;;;8.77;7.80;;;9.80;99.90;;;11.48;100.00;98932.94;4827873;28;100580;-60
2021/04/29 02:33:04;;;;;;;9.23;7.90;;;9.80;99.90;;;11.56;100.00;98921.22;4827706;28;100347;-60
2021/04/29 02:40:19;;;;;;;10.13;8.47;;;10.00;99.90;;;11.57;100.00;98922.06;4915289;28;100267;-61
2021/04/29 02:44:00;;;;;;;10.10;7.83;;;10.00;99.90;;;11.35;100.00;98924.81;4924151;28;100360;-60
2021/04/29 02:51:59;;;;;;;8.97;7.83;;;10.10;99.90;;;11.14;100.00;98911.47;4924108;28;100702;-61
2021/04/29 02:55:58;;;;;;;9.17;8.17;;;10.10;99.90;;;11.04;100.00;98914.50;4932057;28;100699;-59
2021/04/29 02:59:20;;;;;;;11.77;8.03;;;10.10;99.90;;;11.01;100.00;98919.41;4877453;28;100258;-59
2021/04/29 03:03:15;;;;;;;9.07;8.20;;;10.10;99.90;;;10.97;100.00;98910.94;4944067;28;100607;-60
2021/04/29 03:06:32;;;;;;;8.93;8.03;;;10.10;99.90;;;11.00;100.00;98907.06;4881227;28;100962;-58
2021/04/29 03:13:43;;;;;;;9.40;8.50;;;10.00;99.90;;;11.14;100.00;98900.75;4806130;29;100457;-60
2021/04/29 03:17:24;;;;;;;8.77;7.87;;;10.00;99.90;;;11.30;100.00;98905.00;4816790;28;100622;-61
2021/04/29 03:23:53;;;;;;;10.30;8.70;;;10.10;99.90;;;11.30;100.00;98899.63;4944116;28;101396;-61
2021/04/29 03:27:04;;;;;;;10.90;8.17;;;10.10;99.90;;;11.31;100.00;98910.16;4944384;28;100428;-60
2021/04/29 03:30:16;;;;;;;8.50;7.70;;;10.10;99.90;;;11.29;100.00;98906.84;4944547;28;100119;-61
2021/04/29 03:33:44;;;;;;;11.37;8.03;;;10.10;99.90;;;11.30;100.00;98894.28;4924157;28;101764;-58
2021/04/29 03:55:25;;;;;;;10.00;7.07;;;10.30;99.90;;;12.18;100.00;98910.41;4945405;28;100325;-60
2021/04/29 03:58:48;;;;;;;21.80;17.33;;;10.30;99.90;;;11.95;100.00;98917.94;4946374;28;100242;-61
2021/04/29 04:02:24;;;;;;;16.60;13.87;;;10.40;99.90;;;11.87;100.00;98915.41;4946106;28;101410;-60
2021/04/29 04:09:14;;;;;;;8.67;7.87;;;10.50;99.90;;;11.57;100.00;98914.84;4946898;28;100057;-58
2021/04/29 04:24:20;;;;;;;9.93;8.47;;;10.60;99.90;;;13.28;100.00;98903.69;4835250;28;100404;-59
2021/04/29 04:27:31;;;;;;;8.90;7.20;;;10.80;99.90;;;13.46;100.00;98900.38;4886369;28;100269;-58
2021/04/29 04:35:12;;;;;;;11.53;9.27;;;11.30;99.90;;;13.62;100.00;98910.63;4882117;28;100241;-60
2021/04/29 04:38:40;;;;;;;12.97;11.57;;;11.50;99.90;;;13.65;100.00;98919.13;4962349;28;100155;-59
2021/04/29 04:53:05;;;;;;;8.30;6.87;;;11.90;99.90;;;13.45;100.00;98972.09;4841826;28;100544;-60
2021/04/29 04:56:26;;;;;;;11.70;8.70;;;11.90;99.90;;;13.36;100.00;98964.44;4843562;28;100360;-59
2021/04/29 05:03:39;;;;;;;8.80;7.40;;;11.90;99.90;;;13.30;100.00;98961.56;4842825;28;100406;-59
2021/04/29 05:14:23;;;;;;;7.83;6.90;;;11.90;99.90;;;13.38;100.00;98976.63;4924247;28;100433;-58
2021/04/29 05:17:58;;;;;;;9.27;7.03;;;11.90;99.90;;;13.40;100.00;98988.00;4901410;28;100648;-58
2021/04/29 05:25:32;;;;;;;9.93;7.63;;;11.90;99.90;;;13.26;100.00;98981.78;4827759;28;99928;-60
2021/04/29 05:40:29;;;;;;;9.37;8.30;;;11.70;99.90;;;12.81;100.00;98966.47;4860702;28;100526;-62
2021/04/29 05:43:41;;;;;;;10.00;9.00;;;11.60;99.90;;;12.67;100.00;98957.56;4924992;28;100789;-62
2021/04/29 05:46:59;;;;;;;10.97;9.50;;;11.50;99.90;;;12.49;100.00;98951.94;4907103;28;102882;-62
2021/04/29 05:50:10;;;;;;;12.40;8.70;;;11.40;99.90;;;12.37;100.00;98935.59;4907071;28;100154;-61
2021/04/29 05:57:00;;;;;;;11.87;9.87;;;11.20;99.90;;;12.11;100.00;98908.72;4900091;28;100205;-62
2021/04/29 06:04:05;;;;;;;11.47;10.23;;;10.90;99.90;;;12.13;100.00;98907.47;4924749;28;100106;-60
2021/04/29 06:07:49;;;;;;;12.07;10.33;;;10.90;99.90;;;12.22;100.00;98897.41;4928608;28;100222;-61
2021/04/29 06:15:01;;;;;;;11.27;10.17;;;10.80;99.90;;;12.40;100.00;98948.63;4905995;28;100408;-62
2021/04/29 06:18:25;;;;;;;12.50;11.30;;;10.90;99.90;;;12.29;100.00;99002.84;4906886;28;100089;-62
2021/04/29 06:22:14;;;;;;;14.63;11.40;;;10.90;99.90;;;12.18;100.00;99008.78;4905945;28;100508;-61
2021/04/29 06:29:59;;;;;;;16.57;12.40;;;10.90;99.90;;;12.42;100.00;99013.63;4905723;28;100586;-61
2021/04/29 06:37:46;;;;;;;13.77;12.33;;;10.70;99.90;;;12.45;100.00;99015.09;4733581;29;100449;-61
2021/04/29 06:41:09;;;;;;;15.40;13.03;;;10.70;99.90;;;12.42;100.00;99018.16;4853321;28;101337;-62
2021/04/29 06:48:42;;;;;;;17.23;14.00;;;10.60;99.90;;;12.45;100.00;99021.28;4924728;28;100339;-61
2021/04/29 06:51:59;;;;;;;15.80;14.13;;;10.60;99.90;;;12.33;100.00;99019.38;4924415;28;100119;-61
2021/04/29 06:59:08;;;;;;;17.60;15.70;;;10.70;99.90;;;12.37;100.00;99017.94;4923672;28;100706;-60
2021/04/29 07:06:14;;;;;;;17.97;16.07;;;10.70;99.90;;;12.33;100.00;99019.38;4904577;28;101722;-62
2021/04/29 07:09:26;;;;;;;17.30;15.50;;;10.70;99.90;;;12.37;100.00;99025.97;4934355;28;101439;-62
2021/04/29 07:15:54;;;;;;;19.43;16.77;;;10.70;99.90;;;12.19;100.00;99027.38;4942232;28;100404;-62
2021/04/29 07:19:05;;;;;;;19.03;16.93;;;10.70;99.90;;;12.17;100.00;99021.38;4945756;28;100227;-61
2021/04/29 07:22:22;;;;;;;21.77;17.67;;;10.60;99.90;;;12.36;100.00;99033.22;4947199;28;100823;-61
2021/04/29 07:25:34;;;;;;;21.23;17.73;;;10.60;99.90;;;12.29;100.00;99026.16;4946849;28;101090;-62
2021/04/29 07:28:46;;;;;;;20.90;18.63;;;10.60;99.90;;;12.21;100.00;99028.00;4945612;28;100062;-61
2021/04/29 07:31:57;;;;;;;20.90;18.70;;;10.60;99.90;;;12.18;100.00;99023.03;4947077;28;100369;-61
2021/04/29 07:35:09;;;;;;;22.43;18.90;;;10.60;99.90;;;12.29;100.00;99026.16;4947049;28;101610;-62
2021/04/29 07:42:04;;;;;;;23.83;21.13;;;10.70;99.90;;;12.39;100.00;99021.25;4944166;28;100065;-63
2021/04/29 07:45:17;;;;;;;22.00;19.33;;;10.70;99.90;;;12.32;100.00;99017.72;4949245;28;100145;-61
2021/04/29 07:48:28;;;;;;;20.90;18.73;;;10.80;99.90;;;12.40;100.00;99025.59;4945544;28;100832;-62
2021/04/29 07:51:39;;;;;;;21.83;18.80;;;10.80;99.90;;;12.39;100.00;99015.88;4943788;28;100509;-61
2021/04/29 07:54:50;;;;;;;23.57;18.80;;;10.80;99.90;;;12.40;100.00;99022.91;4944852;28;100216;-62
2021/04/29 07:58:02;;;;;;;25.03;20.47;;;10.80;99.90;;;12.36;100.00;99021.66;4934536;28;100522;-62
2021/04/29 08:01:14;;;;;;;20.40;18.20;;;10.90;99.90;;;12.58;100.00;99021.34;4927109;28;100875;-61
2021/04/29 08:04:29;;;;;;;22.60;19.47;;;10.90;99.90;;;12.63;100.00;99020.72;4927895;28;100109;-62
2021/04/29 08:07:40;;;;;;;23.37;19.50;;;11.00;99.90;;;12.67;100.00;99016.59;4930150;28;100082;-62
2021/04/29 08:10:51;;;;;;;23.33;19.97;;;11.00;99.90;;;12.73;100.00;99021.19;4928603;28;100166;-62
2021/04/29 08:14:02;;;;;;;22.20;19.33;;;11.10;99.90;;;12.79;100.00;99025.72;4925556;28;100659;-62
2021/04/29 08:17:14;;;;;;;19.93;17.80;;;11.20;99.90;;;12.71;100.00;99011.66;4905809;28;100608;-61
2021/04/29 08:20:26;;;;;;;22.10;19.80;;;11.30;99.90;;;12.87;100.00;99019.31;4925427;28;100423;-62
2021/04/29 08:23:37;;;;;;;23.60;18.87;;;11.40;99.90;;;12.84;100.00;99019.75;4926379;28;100440;-61
2021/04/29 08:26:48;;;;;;;21.07;18.87;;;11.50;99.90;;;12.90;100.00;99010.88;4928337;28;100861;-60
2021/04/29 08:29:59;;;;;;;22.77;19.63;;;11.60;99.90;;;13.06;100.00;99020.41;4926292;28;100139;-61
2021/04/29 08:33:12;;;;;;;22.73;18.83;;;11.70;99.90;;;13.11;100.00;99015.22;4926691;28;100133;-61
2021/04/29 08:36:23;;;;;;;20.17;18.10;;;11.70;99.90;;;13.13;100.00;99019.38;4926183;28;100898;-60
2021/04/29 08:39:34;;;;;;;19.97;17.97;;;11.90;99.90;;;13.42;100.00;99018.19;4926428;28;101041;-60
2021/04/29 08:42:46;;;;;;;19.40;17.40;;;12.00;99.90;;;13.51;100.00;99018.78;4908386;28;102483;-59
2021/04/29 08:45:57;;;;;;;18.07;16.23;;;12.20;99.90;;;13.66;100.00;99020.22;4921108;28;100417;-60
2021/04/29 08:49:11;;;;;;;18.87;16.87;;;12.40;99.90;;;13.81;100.00;99025.38;4921429;28;100314;-61
2021/04/29 08:52:22;;;;;;;18.73;16.73;;;12.60;99.90;;;13.90;100.00;99032.19;4911610;28;101094;-61
2021/04/29 08:55:37;;;;;;;18.37;16.47;;;12.70;99.90;;;14.26;100.00;99028.97;4926619;28;100719;-61
2021/04/29 08:58:48;;;;;;;17.97;16.13;;;12.80;99.90;;;14.42;100.00;99022.34;4926447;28;100220;-61
2021/04/29 09:02:05;;;;;;;17.43;15.50;;;13.00;99.90;;;14.62;100.00;99022.22;4928204;28;99952;-60
2021/04/29 09:05:28;;;;;;;16.93;15.07;;;13.30;99.90;;;14.82;100.00;99022.97;4925725;28;100492;-60
2021/04/29 09:08:45;;;;;;;17.17;14.60;;;13.50;99.90;;;14.93;100.00;99016.88;4906949;28;102814;-61
2021/04/29 09:12:11;;;;;;;17.57;14.23;;;13.90;99.90;;;15.16;100.00;99018.19;4926553;28;100206;-61
2021/04/29 09:15:29;;;;;;;15.53;14.00;;;14.10;99.90;;;15.86;100.00;99022.38;4927076;28;99976;-61
2021/04/29 09:18:49;;;;;;;17.25;13.77;;;14.50;99.90;;;15.75;100.00;99017.72;4924856;28;101412;-60
2021/04/29 09:22:02;;;;;;;15.63;13.47;;;14.90;99.90;;;15.41;100.00;99019.84;4923921;28;101499;-60
2021/04/29 09:25:19;;;;;;;14.07;12.60;;;15.10;99.90;;;15.70;100.00;99014.88;4925748;28;100126;-60
2021/04/29 09:28:41;;;;;;;14.13;12.60;;;15.30;99.90;;;15.87;100.00;99013.22;4925878;28;100046;-59
2021/04/29 09:32:08;;;;;;;13.87;12.47;;;15.50;99.90;;;16.00;100.00;99014.97;4925348;28;101123;-60
2021/04/29 09:35:25;;;;;;;14.75;11.85;;;15.60;99.90;;;16.29;100.00;99010.72;4926704;28;100309;-60
2021/04/29 09:38:43;;;;;;;15.23;13.15;;;15.80;99.90;;;16.52;100.00;99008.13;4933494;28;99952;-61
2021/04/29 09:45:38;;;;;;;14.80;12.88;;;16.10;99.90;;;16.76;100.00;99001.81;4911992;28;99819;-61
2021/04/29 09:48:56;;;;;;;13.93;11.88;;;16.30;99.90;;;17.05;100.00;98985.81;4929016;28;100314;-60
2021/04/29 09:52:07;;;;;;;13.00;11.60;;;16.50;99.90;;;17.49;100.00;98995.28;4941231;28;96677;-60
2021/04/29 09:55:23;;;;;;;13.88;11.73;;;16.80;99.90;;;17.34;100.00;99000.31;4948842;28;99822;-59
2021/04/29 09:58:46;;;;;;;12.60;11.35;;;17.00;99.90;;;16.90;100.00;98988.94;4939021;28;100047;-59
2021/04/29 10:01:58;;;;;;;12.57;11.27;;;17.00;99.90;;;16.92;100.00;98986.84;4933785;28;100453;-61
2021/04/29 10:05:11;;;;;;;12.93;11.65;;;16.80;99.90;;;16.99;100.00;98990.25;4941616;28;99384;-61
2021/04/29 10:08:23;;;;;;;12.15;10.90;;;16.70;99.90;;;16.97;100.00;98988.81;4935572;28;100156;-61
2021/04/29 10:11:38;;;;;;;13.68;11.52;;;16.60;99.90;;;16.98;100.00;99010.22;4950452;28;99910;-61
2021/04/29 10:14:52;;;;;;;12.13;10.90;;;16.40;99.90;;;16.81;100.00;98990.31;4957769;28;100990;-62
2021/04/29 10:18:03;;;;;;;11.88;10.52;;;16.30;99.90;;;17.04;100.00;98998.50;4948953;28;100370;-62
2021/04/29 10:21:27;;;;;;;11.77;10.57;;;16.20;99.90;;;17.06;100.00;99003.69;4949381;28;100055;-62
2021/04/29 10:24:39;;;;;;;8.93;7.55;;;16.20;99.90;;;16.96;100.00;99004.22;4946510;28;100200;-62
2021/04/29 10:27:52;;;;;;;6.72;6.13;;;16.10;99.90;;;16.82;100.00;99013.56;4948793;28;100364;-61
2021/04/29 10:31:18;;;;;;;5.57;5.07;;;16.10;99.90;;;16.78;100.00;99010.50;4947018;28;99949;-61
2021/04/29 10:34:33;;;;;;;5.50;5.00;;;15.90;99.50;;;16.74;100.00;99006.63;4945139;28;100124;-60
2021/04/29 10:38:03;;;;;;;5.78;5.15;;;15.80;99.90;;;16.85;100.00;99019.34;4940070;28;101082;-62
2021/04/29 10:41:25;;;;;;;5.32;4.82;;;15.70;99.90;;;17.02;100.00;99016.81;4944294;28;100740;-62
2021/04/29 10:44:48;;;;;;;7.75;4.85;;;15.70;99.90;;;17.44;100.00;99011.38;4971598;28;97992;-62
2021/04/29 10:48:00;;;;;;;5.90;5.40;;;15.90;99.90;;;17.50;100.00;99018.56;4960897;28;100084;-61
2021/04/29 10:55:09;;;;;;;4.55;4.15;;;16.40;98.80;;;17.97;100.00;99011.28;4958557;28;100001;-61
2021/04/29 11:02:15;;;;;;;5.35;4.80;;;17.20;95.40;;;18.61;100.00;99002.13;4900400;28;100481;-63
2021/04/29 11:05:39;;;;;;;5.15;4.65;;;17.70;91.50;;;18.65;100.00;99010.59;4902697;28;100407;-61
2021/04/29 11:09:01;;;;;;;6.55;5.57;;;18.20;84.60;;;18.68;100.00;99004.69;4908588;28;100319;-62
2021/04/29 11:12:19;;;;;;;6.57;5.45;;;18.40;81.70;;;18.81;100.00;99007.09;4929481;28;99119;-62
2021/04/29 11:15:37;;;;;;;5.72;5.22;;;18.60;78.10;;;19.40;100.00;99004.09;4952231;28;54642;-63
2021/04/29 11:18:57;;;;;;;5.82;5.20;;;18.90;78.60;;;19.66;100.00;99017.81;4941342;28;63546;-62
2021/04/29 11:22:19;;;;;;;5.65;5.15;;;19.30;75.20;;;19.57;100.00;99007.63;4990816;28;56747;-62
2021/04/29 11:25:31;;;;;;;7.25;6.20;;;19.70;68.80;;;19.43;100.00;99009.81;4997779;28;61494;-62
2021/04/29 11:32:07;;;;;;;6.70;5.55;;;20.10;61.60;;;19.78;100.00;99014.22;5000987;28;59188;-63
2021/04/29 11:35:26;;;;;;;6.15;5.13;;;20.30;61.20;;;20.22;100.00;99009.66;4992536;28;57035;-63
2021/04/29 11:38:39;;;;;;;6.50;5.90;;;20.50;59.20;;;19.80;100.00;99012.03;4987433;28;91460;-63
2021/04/29 11:41:50;;;;;;;4.97;4.47;;;20.80;58.00;;;20.15;100.00;99009.88;4981631;28;77213;-61
2021/04/29 11:45:02;;;;;;;6.93;5.68;;;20.80;57.80;;;19.93;100.00;99017.94;4978042;28;52607;-63
2021/04/29 11:48:41;;;;;;;6.43;5.20;;;21.00;57.10;;;19.60;100.00;99015.28;4957468;28;66452;-63
2021/04/29 11:52:02;;;;;;;6.00;5.50;;;20.80;56.20;;;18.97;100.00;99014.47;4999793;28;54368;-61
2021/04/29 11:59:18;;;;;;;6.25;5.65;;;19.80;56.80;;;19.84;100.00;99024.88;4958860;28;62875;-62
2021/04/29 12:02:30;;;;;;;5.90;5.40;;;19.70;58.40;;;19.78;100.00;99038.63;4974880;28;83234;-62
2021/04/29 12:05:48;;;;;;;6.53;5.80;;;19.80;57.10;;;19.41;100.00;99033.66;4982898;28;75932;-63
2021/04/29 12:09:00;;;;;;;6.00;5.40;;;19.80;55.00;;;19.52;100.00;99030.09;5003624;28;62063;-63
2021/04/29 12:12:19;;;;;;;7.55;5.75;;;19.70;55.20;;;19.52;100.00;99026.56;4994391;28;62865;-63
2021/04/29 12:15:31;;;;;;;7.75;5.75;;;19.80;54.60;;;19.43;100.00;99039.66;4982363;28;86014;-62
2021/04/29 12:18:42;;;;;;;7.40;6.38;;;19.80;55.20;;;19.10;100.00;99026.06;4975651;28;95250;-63
2021/04/29 12:22:07;;;;;;;5.30;4.90;;;19.70;55.80;;;19.00;100.00;99035.66;4979932;28;89239;-63
2021/04/29 12:28:50;;;;;;;5.28;4.80;;;19.30;57.00;;;19.13;100.00;99042.69;4963582;28;99678;-62
2021/04/29 12:32:19;;;;;;;5.82;4.93;;;19.20;57.80;;;19.13;100.00;99056.22;4963193;28;94743;-62
2021/04/29 12:35:37;;;;;;;5.65;5.07;;;19.20;58.50;;;19.15;100.00;99037.84;4962066;28;96285;-62
2021/04/29 12:38:58;;;;;;;5.63;5.13;;;19.10;58.70;;;19.26;100.00;99044.25;4977588;28;94557;-63
2021/04/29 12:42:12;;;;;;;5.80;5.22;;;19.10;59.30;;;19.76;100.00;99044.31;4978815;28;88281;-62
2021/04/29 12:45:25;;;;;;;6.25;4.32;;;19.40;59.50;;;20.07;100.00;99045.56;4986746;28;58990;-63
2021/04/29 12:48:44;;;;;;;7.00;4.47;;;19.80;59.50;;;19.91;100.00;99033.66;5008267;28;54620;-63
2021/04/29 12:51:55;;;;;;;5.82;4.28;;;20.00;58.30;;;19.66;100.00;99036.81;5005751;28;63587;-61
2021/04/29 12:55:07;;;;;;;5.38;4.38;;;20.10;55.90;;;19.59;100.00;99041.59;5001912;28;67664;-63
2021/04/29 13:02:29;;;;;;;4.93;4.43;;;19.90;55.30;;;19.94;100.00;99038.59;4979209;28;85827;-63
2021/04/29 13:05:41;;;;;;;5.05;3.88;;;19.90;55.00;;;20.31;100.00;99038.84;4989621;28;81023;-62
2021/04/29 13:09:10;;;;;;;5.28;4.28;;;20.20;54.70;;;20.07;100.00;99038.25;5008204;28;88023;-63
2021/04/29 13:12:28;;;;;;;5.00;4.53;;;20.50;54.00;;;20.37;100.00;99037.91;4990417;28;63830;-62
2021/04/29 13:15:57;;;;;;;5.03;4.00;;;20.60;53.80;;;20.34;100.00;99026.66;5009748;28;62068;-63
2021/04/29 13:19:25;;;;;;;4.35;3.88;;;20.80;53.80;;;20.30;100.00;99030.94;5014625;28;90815;-63
2021/04/29 13:26:02;;;;;;;6.20;4.30;;;20.80;53.40;;;20.18;100.00;99022.09;5019186;28;71137;-63
2021/04/29 13:29:13;;;;;;;4.35;3.95;;;20.80;52.80;;;20.19;100.00;99027.28;5008661;28;70324;-63
2021/04/29 13:32:27;;;;;;;4.65;4.20;;;20.70;53.10;;;19.97;100.00;99023.72;5001392;28;66732;-62
2021/04/29 13:35:39;;;;;;;7.35;4.65;;;20.60;53.40;;;19.70;100.00;99018.16;5004597;28;57656;-63
2021/04/29 13:38:51;;;;;;;5.43;4.15;;;20.40;53.30;;;19.99;100.00;99027.00;4984555;28;93176;-63
2021/04/29 13:42:02;;;;;;;5.75;4.40;;;20.30;53.70;;;20.07;100.00;99023.84;5012093;28;61130;-63
2021/04/29 13:45:14;;;;;;;8.52;4.53;;;20.40;53.50;;;20.08;100.00;99020.91;5007225;28;93705;-63
2021/04/29 13:48:26;;;;;;;5.60;4.30;;;20.50;52.90;;;19.98;100.00;99006.34;4984599;28;98965;-62
2021/04/29 13:51:37;;;;;;;5.22;4.72;;;20.40;53.20;;;20.05;100.00;99007.81;4991098;28;82079;-63
2021/04/29 13:54:48;;;;;;;4.47;4.07;;;20.30;53.30;;;20.55;100.00;99016.91;4996656;28;90372;-63
2021/04/29 13:58:00;;;;;;;4.88;4.07;;;20.30;53.80;;;20.54;100.00;99012.53;5002215;28;89921;-63
2021/04/29 14:01:12;;;;;;;5.30;3.80;;;20.60;53.10;;;20.88;100.00;99013.22;4992250;28;99602;-63
2021/04/29 14:04:24;;;;;;;4.35;3.88;;;20.80;52.90;;;20.59;100.00;99008.00;4973119;28;99599;-62
2021/04/29 14:07:36;;;;;;;6.50;4.07;;;21.00;51.70;;;20.35;100.00;99003.88;4971558;28;97516;-61
2021/04/29 14:10:47;;;;;;;3.70;3.40;;;21.10;50.60;;;20.37;100.00;99001.75;5014798;28;63996;-63
2021/04/29 14:13:59;;;;;;;5.93;3.47;;;21.00;51.00;;;20.69;100.00;99001.84;4983285;28;98602;-62
2021/04/29 14:17:10;;;;;;;4.35;3.65;;;20.90;51.20;;;20.50;100.00;98995.94;5000745;28;93937;-62
2021/04/29 14:20:22;;;;;;;5.63;3.50;;;21.00;49.60;;;20.46;100.00;99005.66;4999538;28;70732;-63
2021/04/29 14:23:34;;;;;;;4.03;2.95;;;20.90;49.30;;;20.15;100.00;98996.28;4992922;28;85799;-63
2021/04/29 14:26:45;;;;;;;5.43;3.42;;;20.80;49.00;;;20.01;100.00;98997.72;4986195;28;98936;-62
2021/04/29 14:29:56;;;;;;;4.97;3.63;;;20.50;49.70;;;19.98;100.00;99001.75;5002375;28;66223;-61
2021/04/29 14:33:18;;;;;;;3.05;2.75;;;20.20;50.50;;;19.80;100.00;99003.91;4999967;28;99167;-62
2021/04/29 14:36:31;;;;;;;5.20;2.97;;;19.90;50.70;;;19.89;100.00;99002.44;4994695;28;92821;-63
2021/04/29 14:39:48;;;;;;;3.42;3.13;;;19.70;51.00;;;19.91;100.00;99002.97;4960429;28;99965;-62
2021/04/29 14:43:00;;;;;;;5.55;3.53;;;19.60;51.00;;;19.74;100.00;98984.03;4994652;28;94794;-62
2021/04/29 14:46:11;;;;;;;4.97;2.95;;;19.50;51.50;;;19.62;100.00;98991.44;4984402;28;94646;-63
2021/04/29 14:49:23;;;;;;;4.15;3.13;;;19.40;52.00;;;19.52;100.00;98989.41;4996608;28;82463;-63
2021/04/29 14:52:47;;;;;;;3.38;2.75;;;19.20;52.20;;;19.63;100.00;98996.63;4969153;28;85559;-63
2021/04/29 14:55:58;;;;;;;4.68;3.10;;;19.10;52.70;;;19.57;100.00;98986.75;4995738;28;98837;-63
2021/04/29 14:59:09;;;;;;;3.90;3.00;;;19.00;53.00;;;19.70;100.00;98988.28;4989453;28;93391;-63
2021/04/29 15:02:21;;;;;;;6.93;3.10;;;18.90;53.40;;;19.66;100.00;98977.09;5002284;28;85560;-62
2021/04/29 15:09:13;;;;;;;4.65;2.70;;;18.90;53.30;;;19.67;100.00;98980.66;4926880;28;99954;-62
2021/04/29 15:12:33;;;;;;;3.13;2.83;;;18.90;53.70;;;19.56;100.00;98995.13;4971056;28;99887;-63
2021/04/29 15:15:45;;;;;;;3.20;2.80;;;18.80;53.60;;;19.63;100.00;98999.34;4974141;28;98374;-63
2021/04/29 15:19:26;;;;;;;4.82;2.70;;;18.80;54.30;;;19.46;100.00;99032.91;4970452;28;99567;-62
2021/04/29 15:22:37;;;;;;;2.60;2.40;;;18.80;54.50;;;18.36;100.00;99106.38;4873589;28;96808;-63
2021/04/29 15:25:49;;;;;;;6.00;2.80;;;18.70;55.90;;;15.71;100.00;99103.63;4862203;28;99944;-64
2021/04/29 15:29:00;;;;;;;4.75;2.38;;;18.20;65.30;;;14.35;100.00;99119.19;4949911;28;100866;-61
2021/04/29 15:32:12;;;;;;;5.45;3.00;;;16.90;84.30;;;13.81;100.00;99140.16;4959022;28;100726;-60
2021/04/29 15:35:24;;;;;;;3.92;2.83;;;15.40;97.00;;;13.61;100.00;99132.06;4941067;28;100224;-60
2021/04/29 15:38:34;;;;;;;4.75;3.33;;;14.30;99.90;;;13.39;100.00;99120.69;4966253;28;100098;-60
2021/04/29 15:41:47;;;;;;;4.43;3.20;;;13.50;99.90;;;13.28;100.00;99130.16;4971385;28;100297;-61
2021/04/29 15:44:58;;;;;;;5.50;3.27;;;12.80;99.90;;;13.09;100.00;99148.91;4976265;28;95764;-61
2021/04/29 15:48:09;;;;;;;7.33;3.97;;;12.40;99.90;;;13.11;100.00;99136.91;4942441;28;99989;-61
2021/04/29 15:51:25;;;;;;;7.33;4.90;;;12.00;99.90;;;13.03;100.00;99120.97;4962733;28;100400;-61
2021/04/29 15:54:37;;;;;;;5.70;5.20;;;11.70;99.90;;;13.09;100.00;99119.34;4964552;28;101192;-61
2021/04/29 15:57:49;;;;;;;7.27;6.47;;;11.50;99.90;;;13.07;100.00;99106.13;4967281;28;100353;-60
2021/04/29 16:01:00;;;;;;;5.50;4.77;;;11.40;99.90;;;13.28;100.00;99111.38;4971555;28;99793;-61
2021/04/29 16:04:11;;;;;;;5.70;5.13;;;11.40;99.90;;;13.42;100.00;99114.91;4968938;28;100323;-61
2021/04/29 16:07:23;;;;;;;4.40;4.00;;;11.40;99.90;;;13.31;100.00;99118.19;4932309;28;102838;-61
2021/04/29 16:10:36;;;;;;;7.07;5.00;;;11.40;99.90;;;13.09;100.00;99108.63;4956190;28;100229;-61
2021/04/29 16:14:01;;;;;;;5.23;4.73;;;11.40;99.90;;;13.11;100.00;99115.41;4944578;28;100346;-62
2021/04/29 16:17:18;;;;;;;5.63;5.13;;;11.30;99.90;;;13.07;100.00;99108.00;4964983;28;100180;-62
2021/04/29 16:20:30;;;;;;;5.30;4.87;;;11.30;99.90;;;13.09;100.00;99111.31;4963592;28;100689;-61
2021/04/29 16:23:47;;;;;;;6.43;4.87;;;11.30;99.90;;;13.04;100.00;99108.38;4962173;28;100013;-61
2021/04/29 16:26:58;;;;;;;6.53;4.87;;;11.30;99.90;;;13.16;100.00;99112.16;4965094;28;100285;-62
2021/04/29 16:30:11;;;;;;;5.73;4.60;;;11.30;99.90;;;13.18;100.00;99094.81;4952900;28;100446;-63
2021/04/29 16:40:09;;;;;;;5.83;5.00;;;11.40;99.90;;;13.57;100.00;99087.84;4959015;28;100310;-62
2021/04/29 16:43:32;;;;;;;5.47;4.60;;;11.50;99.90;;;13.62;100.00;99085.34;4951077;28;100081;-62
2021/04/29 16:46:45;;;;;;;3.33;2.90;;;11.60;99.90;;;13.51;100.00;99084.09;4978712;28;99702;-64
2021/04/29 16:49:56;;;;;;;2.93;2.47;;;11.70;99.90;;;13.48;100.00;99087.19;4962475;28;99939;-63
2021/04/29 16:53:20;;;;;;;3.37;2.67;;;11.70;99.90;;;13.64;100.00;99080.59;4963253;28;100460;-64
2021/04/29 16:56:31;;;;;;;3.03;2.70;;;11.70;99.90;;;13.59;100.00;99083.09;4963781;28;100200;-63
2021/04/29 16:59:43;;;;;;;3.67;2.60;;;11.70;99.90;;;13.60;100.00;99090.09;4939033;28;101768;-64
2021/04/29 17:02:55;;;;;;;2.53;2.30;;;11.70;99.90;;;13.46;100.00;99086.59;4947305;28;100272;-64
2021/04/29 17:09:54;;;;;;;2.40;2.20;;;11.50;99.90;;;13.21;100.00;99099.78;4935508;28;100376;-65
2021/04/29 17:13:05;;;;;;;3.67;2.67;;;11.50;99.90;;;13.22;100.00;99106.00;4961853;28;101097;-65
2021/04/29 17:16:17;;;;;;;2.63;2.20;;;11.50;99.90;;;13.24;100.00;99101.22;4961580;28;100239;-64
2021/04/29 17:19:29;;;;;;;3.50;2.50;;;11.40;99.90;;;13.34;100.00;99106.22;4957496;28;100761;-65